createdAt,value
2022-12-04T00:01:14.231Z,1.40
2022-12-04T00:03:41.356Z,1.40
2022-12-04T00:06:19.650Z,1.40
2022-12-04T00:08:48.364Z,1.40
2022-12-04T00:11:18.580Z,1.40
2022-12-04T00:13:45.634Z,1.50
2022-12-04T00:16:16.418Z,1.50
2022-12-04T00:18:43.964Z,1.50
2022-12-04T00:21:13.818Z,1.50
2022-12-04T00:23:41.494Z,1.50
2022-12-04T00:26:13.368Z,1.50
2022-12-04T00:28:40.860Z,1.50
2022-12-04T00:31:10.759Z,1.50
2022-12-04T00:33:38.116Z,1.40
2022-12-04T00:36:08.492Z,1.40
2022-12-04T00:38:36.448Z,1.40
2022-12-04T00:41:04.249Z,1.50
2022-12-04T00:43:31.927Z,1.50
2022-12-04T00:45:59.363Z,1.50
2022-12-04T00:48:26.602Z,1.50
2022-12-04T00:50:54.542Z,1.50
2022-12-04T00:53:22.026Z,1.50
2022-12-04T00:55:49.067Z,1.50
2022-12-04T00:58:16.138Z,1.50
2022-12-04T01:00:43.733Z,1.50
2022-12-04T01:03:11.114Z,1.40
2022-12-04T01:05:45.734Z,1.40
2022-12-04T01:08:13.659Z,1.40
2022-12-04T01:10:42.432Z,1.40
2022-12-04T01:13:09.750Z,1.50
2022-12-04T01:15:42.745Z,1.50
2022-12-04T01:18:10.786Z,1.50
2022-12-04T01:20:38.211Z,1.50
2022-12-04T01:23:05.422Z,1.50
2022-12-04T01:25:32.646Z,1.50
2022-12-04T01:27:59.793Z,1.50
2022-12-04T01:30:26.828Z,1.50
2022-12-04T01:32:54.053Z,1.40
2022-12-04T01:35:21.155Z,1.50
2022-12-04T01:37:48.267Z,1.40
2022-12-04T01:40:16.536Z,1.50
2022-12-04T01:42:43.551Z,1.50
2022-12-04T01:45:32.731Z,1.50
2022-12-04T01:48:32.009Z,1.50
2022-12-04T01:51:18.891Z,1.50
2022-12-04T01:53:56.563Z,1.50
2022-12-04T01:56:29.831Z,1.50
2022-12-04T01:59:02.128Z,1.50
2022-12-04T02:01:36.686Z,3.30
2022-12-04T02:04:03.971Z,1.50
2022-12-04T02:06:30.991Z,1.50
2022-12-04T02:08:58.208Z,1.60
2022-12-04T02:11:39.379Z,1.60
2022-12-04T02:14:06.534Z,1.60
2022-12-04T02:16:39.441Z,1.60
2022-12-04T02:19:06.500Z,1.60
2022-12-04T02:21:40.142Z,1.70
2022-12-04T02:24:28.673Z,1.70
2022-12-04T02:27:32.123Z,1.70
2022-12-04T02:30:08.331Z,1.80
2022-12-04T02:32:50.921Z,1.80
2022-12-04T02:35:27.288Z,1.90
2022-12-04T02:38:04.760Z,1.90
2022-12-04T02:41:00.825Z,1.90
2022-12-04T02:43:36.300Z,1.90
2022-12-04T02:46:11.802Z,1.90
2022-12-04T02:48:42.403Z,1.90
2022-12-04T02:51:13.960Z,1.90
2022-12-04T02:53:46.793Z,1.80
2022-12-04T02:56:18.275Z,1.80
2022-12-04T02:58:51.104Z,1.80
2022-12-04T03:01:24.148Z,1.80
2022-12-04T03:04:00.221Z,1.80
2022-12-04T03:06:31.406Z,1.80
2022-12-04T03:09:25.709Z,1.90
2022-12-04T03:11:58.345Z,1.90
2022-12-04T03:14:31.342Z,1.90
2022-12-04T03:17:05.331Z,1.90
2022-12-04T03:19:41.883Z,1.90
2022-12-04T03:22:13.395Z,2.00
2022-12-04T03:24:50.294Z,1.90
2022-12-04T03:27:39.585Z,1.90
2022-12-04T03:30:14.318Z,1.80
2022-12-04T03:32:50.853Z,1.90
2022-12-04T03:35:33.468Z,1.90
2022-12-04T03:38:22.483Z,1.90
2022-12-04T03:40:49.477Z,2.00
2022-12-04T03:43:25.552Z,2.00
2022-12-04T03:46:05.976Z,2.00
2022-12-04T03:48:47.947Z,2.00
2022-12-04T03:51:36.752Z,1.90
2022-12-04T03:54:15.021Z,1.90
2022-12-04T03:56:56.438Z,2.00
2022-12-04T03:59:56.527Z,1.90
2022-12-04T04:02:26.349Z,1.90
2022-12-04T04:04:57.001Z,2.00
2022-12-04T04:07:35.311Z,1.90
2022-12-04T04:10:13.322Z,1.90
2022-12-04T04:13:08.369Z,1.90
2022-12-04T04:15:59.436Z,2.00
2022-12-04T04:18:47.268Z,2.00
2022-12-04T04:21:35.957Z,2.00
2022-12-04T04:24:16.981Z,2.00
2022-12-04T04:26:47.704Z,2.00
2022-12-04T04:29:15.195Z,2.00
2022-12-04T04:32:00.518Z,2.00
2022-12-04T04:34:30.656Z,2.00
2022-12-04T04:37:00.788Z,2.00
2022-12-04T04:39:36.846Z,2.10
2022-12-04T04:42:22.530Z,2.20
2022-12-04T04:45:18.068Z,2.10
2022-12-04T04:47:54.523Z,2.10
2022-12-04T04:50:22.122Z,2.10
2022-12-04T04:52:53.875Z,2.10
2022-12-04T04:55:22.027Z,2.10
2022-12-04T04:57:49.073Z,2.10
2022-12-04T05:00:22.284Z,2.10
2022-12-04T05:02:50.451Z,2.10
2022-12-04T05:05:18.390Z,2.10
2022-12-04T05:07:45.536Z,2.10
2022-12-04T05:10:12.753Z,2.10
2022-12-04T05:12:39.967Z,2.10
2022-12-04T05:15:07.590Z,2.10
2022-12-04T05:17:36.267Z,2.20
2022-12-04T05:20:05.264Z,2.10
2022-12-04T05:22:37.056Z,2.10
2022-12-04T05:25:05.887Z,2.10
2022-12-04T05:27:33.295Z,2.10
2022-12-04T05:30:00.780Z,2.10
2022-12-04T05:32:29.437Z,2.10
2022-12-04T05:34:57.518Z,2.10
2022-12-04T05:37:25.371Z,2.10
2022-12-04T05:39:52.504Z,2.10
2022-12-04T05:42:19.995Z,2.00
2022-12-04T05:44:48.728Z,2.00
2022-12-04T05:47:15.898Z,2.00
2022-12-04T05:49:43.187Z,2.10
2022-12-04T05:52:10.822Z,2.10
2022-12-04T05:54:38.228Z,2.10
2022-12-04T05:57:05.559Z,2.10
2022-12-04T05:59:33.270Z,2.10
2022-12-04T06:02:00.738Z,2.00
2022-12-04T06:04:27.809Z,2.00
2022-12-04T06:06:55.413Z,2.10
2022-12-04T06:09:22.731Z,2.10
2022-12-04T06:11:49.804Z,2.10
2022-12-04T06:14:16.964Z,2.30
2022-12-04T06:16:46.174Z,2.10
2022-12-04T06:19:17.457Z,2.10
2022-12-04T06:21:46.692Z,2.10
2022-12-04T06:24:16.918Z,2.10
2022-12-04T06:27:11.368Z,2.10
2022-12-04T06:29:32.170Z,2.10
2022-12-04T06:31:59.581Z,2.10
2022-12-04T06:34:26.732Z,2.10
2022-12-04T06:36:53.821Z,2.10
2022-12-04T06:39:20.884Z,2.10
2022-12-04T06:41:48.214Z,2.10
2022-12-04T06:44:16.273Z,2.10
2022-12-04T06:46:46.723Z,2.10
2022-12-04T06:49:14.594Z,2.10
2022-12-04T06:51:41.716Z,2.10
2022-12-04T06:54:09.930Z,2.10
2022-12-04T06:56:37.077Z,2.10
2022-12-04T06:59:04.931Z,2.10
2022-12-04T07:01:34.466Z,2.10
2022-12-04T07:04:04.427Z,2.10
2022-12-04T07:06:39.327Z,2.10
2022-12-04T07:09:13.760Z,2.20
2022-12-04T07:11:42.513Z,2.20
2022-12-04T07:14:10.318Z,2.20
2022-12-04T07:16:41.063Z,2.20
2022-12-04T07:19:09.787Z,2.20
2022-12-04T07:21:36.837Z,2.20
2022-12-04T07:24:04.507Z,2.20
2022-12-04T07:26:31.639Z,2.20
2022-12-04T07:28:59.636Z,2.30
2022-12-04T07:31:28.910Z,2.20
2022-12-04T07:33:56.195Z,2.30
2022-12-04T07:36:24.804Z,2.20
2022-12-04T07:38:52.222Z,2.20
2022-12-04T07:41:21.511Z,2.30
2022-12-04T07:43:48.761Z,2.30
2022-12-04T07:46:25.383Z,2.30
2022-12-04T07:48:57.042Z,2.40
2022-12-04T07:51:26.881Z,2.40
2022-12-04T07:53:54.927Z,2.40
2022-12-04T07:56:22.454Z,2.40
2022-12-04T07:58:49.618Z,2.50
2022-12-04T08:01:19.965Z,2.50
2022-12-04T08:03:49.070Z,2.50
2022-12-04T08:06:21.410Z,2.50
2022-12-04T08:08:48.902Z,2.50
2022-12-04T08:11:18.776Z,2.50
2022-12-04T08:13:46.196Z,2.50
2022-12-04T08:16:14.824Z,2.60
2022-12-04T08:18:47.086Z,2.60
2022-12-04T08:21:21.112Z,2.60
2022-12-04T08:23:58.596Z,2.60
2022-12-04T08:26:28.393Z,2.60
2022-12-04T08:28:57.480Z,2.50
2022-12-04T08:31:27.028Z,2.50
2022-12-04T08:33:57.072Z,2.50
2022-12-04T08:36:25.201Z,2.50
2022-12-04T08:38:52.556Z,2.50
2022-12-04T08:41:21.688Z,2.50
2022-12-04T08:43:48.912Z,2.50
2022-12-04T08:46:18.275Z,2.40
2022-12-04T08:48:46.273Z,2.40
2022-12-04T08:51:19.767Z,2.40
2022-12-04T08:53:47.229Z,2.20
2022-12-04T08:56:14.934Z,2.40
2022-12-04T08:58:42.194Z,2.40
2022-12-04T09:01:14.320Z,2.40
2022-12-04T09:03:42.601Z,2.40
2022-12-04T09:06:13.174Z,2.40
2022-12-04T09:08:40.557Z,2.50
2022-12-04T09:11:19.627Z,2.40
2022-12-04T09:13:47.667Z,2.50
2022-12-04T09:16:20.717Z,2.40
2022-12-04T09:18:49.120Z,2.50
2022-12-04T09:21:18.578Z,2.40
2022-12-04T09:23:46.681Z,2.40
2022-12-04T09:26:24.073Z,2.40
2022-12-04T09:28:51.990Z,2.40
2022-12-04T09:31:20.288Z,2.40
2022-12-04T09:33:48.045Z,2.30
2022-12-04T09:36:18.860Z,2.40
2022-12-04T09:38:48.890Z,2.40
2022-12-04T09:41:25.040Z,2.40
2022-12-04T09:43:58.109Z,2.50
2022-12-04T09:46:37.536Z,2.50
2022-12-04T09:49:14.668Z,0.80
2022-12-04T09:51:43.117Z,4.30
2022-12-04T09:54:21.179Z,2.50
2022-12-04T09:57:00.816Z,2.50
2022-12-04T09:59:32.365Z,2.50
2022-12-04T10:02:05.947Z,2.50
2022-12-04T10:04:33.411Z,2.50
2022-12-04T10:07:22.412Z,2.50
2022-12-04T10:10:05.439Z,2.50
2022-12-04T10:12:39.121Z,2.50
2022-12-04T10:15:20.958Z,2.50
2022-12-04T10:18:06.487Z,2.50
2022-12-04T10:20:33.653Z,2.50
2022-12-04T10:23:16.308Z,2.60
2022-12-04T10:25:44.033Z,2.60
2022-12-04T10:28:23.401Z,2.60
2022-12-04T10:30:53.112Z,2.70
2022-12-04T10:33:30.881Z,2.70
2022-12-04T10:35:58.167Z,2.70
2022-12-04T10:38:46.200Z,2.70
2022-12-04T10:41:16.356Z,2.70
2022-12-04T10:43:49.115Z,2.70
2022-12-04T10:46:24.210Z,2.70
2022-12-04T10:48:58.428Z,2.60
2022-12-04T10:51:26.029Z,2.70
2022-12-04T10:53:53.620Z,2.70
2022-12-04T10:56:24.097Z,2.70
2022-12-04T10:59:04.971Z,2.70
2022-12-04T11:01:34.794Z,2.70
2022-12-04T11:04:09.469Z,2.70
2022-12-04T11:06:36.809Z,2.70
2022-12-04T11:09:04.804Z,2.80
2022-12-04T11:11:34.299Z,2.70
2022-12-04T11:14:08.046Z,2.80
2022-12-04T11:16:40.320Z,2.80
2022-12-04T11:19:27.559Z,2.80
2022-12-04T11:21:57.339Z,2.70
2022-12-04T11:24:36.295Z,2.70
2022-12-04T11:27:07.416Z,2.70
2022-12-04T11:29:42.937Z,2.80
2022-12-04T11:32:44.867Z,2.80
2022-12-04T11:35:23.936Z,2.80
2022-12-04T11:38:02.984Z,2.80
2022-12-04T11:40:31.140Z,2.80
2022-12-04T11:43:17.657Z,2.70
2022-12-04T11:45:59.132Z,2.80
2022-12-04T11:48:26.715Z,2.70
2022-12-04T11:51:14.681Z,2.70
2022-12-04T11:54:00.261Z,2.70
2022-12-04T11:56:39.222Z,2.70
2022-12-04T11:59:24.747Z,2.70
2022-12-04T12:02:24.514Z,2.70
2022-12-04T12:05:09.100Z,2.70
2022-12-04T12:08:02.431Z,2.70
2022-12-04T12:10:44.658Z,2.70
2022-12-04T12:13:33.233Z,2.70
2022-12-04T12:16:22.046Z,2.70
2022-12-04T12:19:10.531Z,2.70
2022-12-04T12:21:54.623Z,2.70
2022-12-04T12:24:32.506Z,2.70
2022-12-04T12:27:20.998Z,2.70
2022-12-04T12:30:15.080Z,2.70
2022-12-04T12:32:58.575Z,2.70
2022-12-04T12:36:01.034Z,2.60
2022-12-04T12:38:56.590Z,2.70
2022-12-04T12:41:42.424Z,2.60
2022-12-04T12:44:36.068Z,2.70
2022-12-04T12:47:18.285Z,2.70
2022-12-04T12:49:58.400Z,2.60
2022-12-04T12:52:39.175Z,2.60
2022-12-04T12:55:24.282Z,2.60
2022-12-04T12:58:15.862Z,2.60
2022-12-04T13:00:49.895Z,2.60
2022-12-04T13:03:45.990Z,2.60
2022-12-04T13:06:18.585Z,2.50
2022-12-04T13:09:19.402Z,2.60
2022-12-04T13:11:51.279Z,2.60
2022-12-04T13:14:18.717Z,2.50
2022-12-04T13:16:54.684Z,2.50
2022-12-04T13:19:46.478Z,2.50
2022-12-04T13:22:35.257Z,2.50
2022-12-04T13:25:31.867Z,2.60
2022-12-04T13:28:31.684Z,2.60
2022-12-04T13:31:14.466Z,2.50
2022-12-04T13:33:57.752Z,2.50
2022-12-04T13:37:01.493Z,2.50
2022-12-04T13:39:47.181Z,2.50
2022-12-04T13:42:26.518Z,2.50
2022-12-04T13:45:03.811Z,2.50
2022-12-04T13:51:43.529Z,2.50
2022-12-04T13:54:14.305Z,2.50
2022-12-04T13:56:47.221Z,2.40
2022-12-04T13:59:32.390Z,2.40
2022-12-04T14:02:24.991Z,2.40
2022-12-04T14:05:00.739Z,2.40
2022-12-04T14:07:34.386Z,2.40
2022-12-04T14:10:14.142Z,2.40
2022-12-04T14:12:49.737Z,2.40
2022-12-04T14:15:26.271Z,2.40
2022-12-04T14:18:25.974Z,2.40
2022-12-04T14:21:13.537Z,2.40
2022-12-04T14:23:47.055Z,2.40
2022-12-04T14:26:37.301Z,2.40
2022-12-04T14:29:35.664Z,2.40
2022-12-04T14:32:22.358Z,2.40
2022-12-04T14:34:54.489Z,2.40
2022-12-04T14:37:26.295Z,2.40
2022-12-04T14:39:53.723Z,2.40
2022-12-04T14:42:27.591Z,2.40
2022-12-04T14:45:00.147Z,2.40
2022-12-04T14:47:56.634Z,2.40
2022-12-04T14:50:32.708Z,2.50
2022-12-04T14:53:23.058Z,2.50
2022-12-04T14:56:24.464Z,2.50
2022-12-04T14:58:52.242Z,2.30
2022-12-04T15:01:31.123Z,2.40
2022-12-04T15:04:01.588Z,2.40
2022-12-04T15:06:34.346Z,2.40
2022-12-04T15:09:23.726Z,2.40
2022-12-04T15:12:12.251Z,2.50
2022-12-04T15:14:50.694Z,2.50
2022-12-04T15:17:19.363Z,2.50
2022-12-04T15:19:46.520Z,2.40
2022-12-04T15:22:28.888Z,2.40
2022-12-04T15:25:00.412Z,2.40
2022-12-04T15:27:32.329Z,2.40
2022-12-04T15:30:02.612Z,2.50
2022-12-04T15:32:32.894Z,2.50
2022-12-04T15:35:07.187Z,2.50
2022-12-04T15:37:35.162Z,2.50
2022-12-04T15:40:07.921Z,2.50
2022-12-04T15:42:35.223Z,2.50
2022-12-04T15:45:24.033Z,2.50
2022-12-04T15:47:54.199Z,2.60
2022-12-04T15:50:29.694Z,2.60
2022-12-04T15:53:02.568Z,2.50
2022-12-04T15:55:38.502Z,2.50
2022-12-04T15:58:18.583Z,2.50
2022-12-04T16:00:45.836Z,2.50
2022-12-04T16:03:36.506Z,2.50
2022-12-04T16:06:08.794Z,2.50
2022-12-04T16:08:39.230Z,2.50
2022-12-04T16:11:09.246Z,2.50
2022-12-04T16:13:40.287Z,2.60
2022-12-04T16:16:35.996Z,2.50
2022-12-04T16:19:16.095Z,2.60
2022-12-04T16:21:43.927Z,2.50
2022-12-04T16:24:13.844Z,2.60
2022-12-04T16:26:41.933Z,2.50
2022-12-04T16:29:10.415Z,2.50
2022-12-04T16:31:39.326Z,2.50
2022-12-04T16:34:06.701Z,2.60
2022-12-04T16:36:34.542Z,2.50
2022-12-04T16:39:02.072Z,2.50
2022-12-04T16:41:33.466Z,2.50
2022-12-04T16:44:00.974Z,2.50
2022-12-04T16:46:30.043Z,2.50
2022-12-04T16:48:58.747Z,2.50
2022-12-04T16:51:30.383Z,2.40
2022-12-04T16:53:58.367Z,2.40
2022-12-04T16:56:25.780Z,2.40
2022-12-04T16:58:56.609Z,2.40
2022-12-04T17:01:40.191Z,2.40
2022-12-04T17:04:08.097Z,2.40
2022-12-04T17:06:35.397Z,2.40
2022-12-04T17:09:02.974Z,2.40
2022-12-04T17:11:33.885Z,2.40
2022-12-04T17:14:07.252Z,2.40
2022-12-04T17:16:36.135Z,2.40
2022-12-04T17:19:04.701Z,2.40
2022-12-04T17:21:32.534Z,2.40
2022-12-04T17:24:00.114Z,2.40
2022-12-04T17:26:28.047Z,2.40
2022-12-04T17:28:55.278Z,2.40
2022-12-04T17:31:25.529Z,2.40
2022-12-04T17:33:53.721Z,2.40
2022-12-04T17:36:23.953Z,2.40
2022-12-04T17:38:59.288Z,2.30
2022-12-04T17:41:27.887Z,2.30
2022-12-04T17:44:01.794Z,2.30
2022-12-04T17:46:29.408Z,2.30
2022-12-04T17:48:59.572Z,2.30
2022-12-04T17:51:30.162Z,2.30
2022-12-04T17:53:57.327Z,2.30
2022-12-04T17:56:27.740Z,2.30
2022-12-04T17:58:55.288Z,2.30
2022-12-04T18:01:28.166Z,2.30
2022-12-04T18:04:02.141Z,2.30
2022-12-04T18:06:32.170Z,2.40
2022-12-04T18:08:59.659Z,2.40
2022-12-04T18:11:30.036Z,2.40
2022-12-04T18:14:07.123Z,2.30
2022-12-04T18:16:41.787Z,2.30
2022-12-04T18:19:12.723Z,2.40
2022-12-04T18:21:40.304Z,2.30
2022-12-04T18:24:08.120Z,2.30
2022-12-04T18:26:39.911Z,2.30
2022-12-04T18:29:07.798Z,2.30
2022-12-04T18:31:35.340Z,2.30
2022-12-04T18:34:04.980Z,2.30
2022-12-04T18:36:33.058Z,2.20
2022-12-04T18:39:04.328Z,2.20
2022-12-04T18:41:31.915Z,2.20
2022-12-04T18:43:59.469Z,2.20
2022-12-04T18:46:30.515Z,2.20
2022-12-04T18:49:04.989Z,2.20
2022-12-04T18:51:38.117Z,2.30
2022-12-04T18:54:12.175Z,2.30
2022-12-04T18:56:40.377Z,2.20
2022-12-04T18:59:13.552Z,2.20
2022-12-04T19:01:43.285Z,2.20
2022-12-04T19:04:12.890Z,2.20
2022-12-04T19:06:44.684Z,2.20
2022-12-04T19:09:17.089Z,2.20
2022-12-04T19:11:45.317Z,2.20
2022-12-04T19:14:21.030Z,2.20
2022-12-04T19:16:51.167Z,2.20
2022-12-04T19:19:18.908Z,2.20
2022-12-04T19:21:46.040Z,2.30
2022-12-04T19:24:14.131Z,2.30
2022-12-04T19:26:44.892Z,2.30
2022-12-04T19:29:14.262Z,2.30
2022-12-04T19:31:41.902Z,2.40
2022-12-04T19:34:09.238Z,2.40
2022-12-04T19:36:40.434Z,2.40
2022-12-04T19:39:07.926Z,2.40
2022-12-04T19:41:37.343Z,2.40
2022-12-04T19:44:20.042Z,2.40
2022-12-04T19:46:52.781Z,2.40
2022-12-04T19:49:20.237Z,2.40
2022-12-04T19:51:48.983Z,2.40
2022-12-04T19:54:17.177Z,2.40
2022-12-04T19:56:49.218Z,2.40
2022-12-04T19:59:16.858Z,2.40
2022-12-04T20:01:44.697Z,2.40
2022-12-04T20:04:12.850Z,2.40
2022-12-04T20:06:45.700Z,2.40
2022-12-04T20:09:15.499Z,2.40
2022-12-04T20:11:43.107Z,2.40
2022-12-04T20:14:11.867Z,2.40
2022-12-04T20:16:40.476Z,2.40
2022-12-04T20:19:12.573Z,2.40
2022-12-04T20:21:40.202Z,2.40
2022-12-04T20:24:08.019Z,2.40
2022-12-04T20:26:38.658Z,2.40
2022-12-04T20:29:08.152Z,2.40
2022-12-04T20:31:38.351Z,2.40
2022-12-04T20:34:11.140Z,2.50
2022-12-04T20:36:43.236Z,2.50
2022-12-04T20:39:12.365Z,2.50
2022-12-04T20:41:41.555Z,2.50
2022-12-04T20:44:14.206Z,2.50
2022-12-04T20:46:42.850Z,2.50
2022-12-04T20:49:21.255Z,2.50
2022-12-04T20:51:53.057Z,2.50
2022-12-04T20:54:22.758Z,2.50
2022-12-04T20:56:53.244Z,2.40
2022-12-04T20:59:22.477Z,2.40
2022-12-04T21:01:51.922Z,2.40
2022-12-04T21:04:19.988Z,2.40
2022-12-04T21:06:47.693Z,2.40
2022-12-04T21:09:21.386Z,2.40
2022-12-04T21:11:53.851Z,2.40
2022-12-04T21:14:44.983Z,2.30
2022-12-04T21:17:21.898Z,2.40
2022-12-04T21:19:51.012Z,2.40
2022-12-04T21:22:24.131Z,2.30
2022-12-04T21:24:51.799Z,2.30
2022-12-04T21:27:24.857Z,2.30
2022-12-04T21:29:55.494Z,2.40
2022-12-04T21:32:23.382Z,2.40
2022-12-04T21:34:52.413Z,2.40
2022-12-04T21:37:22.983Z,2.40
2022-12-04T21:39:50.308Z,2.40
2022-12-04T21:42:33.149Z,2.40
2022-12-04T21:45:01.360Z,2.40
2022-12-04T21:47:31.723Z,2.40
2022-12-04T21:49:59.657Z,2.40
2022-12-04T21:52:27.061Z,2.40
2022-12-04T21:54:55.190Z,2.40
2022-12-04T21:57:23.180Z,2.40
2022-12-04T21:59:54.174Z,2.40
2022-12-04T22:02:21.794Z,2.40
2022-12-04T22:04:49.147Z,2.40
2022-12-04T22:07:16.867Z,2.40
2022-12-04T22:09:44.199Z,2.40
2022-12-04T22:12:33.148Z,2.40
2022-12-04T22:14:58.609Z,2.40
2022-12-04T22:17:30.147Z,2.40
2022-12-04T22:19:57.739Z,2.40
2022-12-04T22:22:25.233Z,2.40
2022-12-04T22:24:52.345Z,2.40
2022-12-04T22:27:19.370Z,2.40
2022-12-04T22:29:50.972Z,2.40
2022-12-04T22:32:19.223Z,2.40
2022-12-04T22:34:49.267Z,2.40
2022-12-04T22:37:16.434Z,2.40
2022-12-04T22:39:43.606Z,2.40
2022-12-04T22:42:10.738Z,2.40
2022-12-04T22:44:37.832Z,2.50
2022-12-04T22:47:05.287Z,2.40
2022-12-04T22:49:32.350Z,2.40
2022-12-04T22:51:59.635Z,2.50
2022-12-04T22:54:26.814Z,2.50
2022-12-04T22:56:53.945Z,2.50
2022-12-04T22:59:21.216Z,2.50
2022-12-04T23:01:48.296Z,2.50
2022-12-04T23:04:15.367Z,2.50
2022-12-04T23:06:42.558Z,2.50
2022-12-04T23:09:13.549Z,2.50
2022-12-04T23:11:41.518Z,2.50
2022-12-04T23:14:12.275Z,2.50
2022-12-04T23:16:39.942Z,2.60
2022-12-04T23:19:09.289Z,2.60
2022-12-04T23:21:36.439Z,2.60
2022-12-04T23:24:03.909Z,2.60
2022-12-04T23:26:38.496Z,2.60
2022-12-04T23:29:23.332Z,2.60
2022-12-04T23:31:54.386Z,2.60
2022-12-04T23:34:21.919Z,2.60
2022-12-04T23:36:49.165Z,2.60
2022-12-04T23:39:16.241Z,2.60
2022-12-04T23:41:43.354Z,2.60
2022-12-04T23:44:10.422Z,2.60
2022-12-04T23:46:37.742Z,2.60
2022-12-04T23:49:05.154Z,2.60
2022-12-04T23:51:32.209Z,2.60
2022-12-04T23:53:59.471Z,2.60
2022-12-04T23:56:28.043Z,2.60
2022-12-04T23:58:57.276Z,2.60
